Terminal Aerodrome Forecast
Issued by NWS Greer, SC

Current Version | Previous Version | Text Only | Print | Product List | Glossary On
Versions: 1 2 3 4 5 6 7 8 9 10 11 12 13 14 15 16 17 18
000
FTUS42 KGSP 011700
TAFGSP
TAF
KGSP 011736Z 0118/0218 23005KT P6SM FEW045 BKN250
     FM020100 23003KT P6SM FEW050 SCT130
     FM021300 24006KT P6SM FEW050 BKN120=

USA.gov is the U.S. government's official web portal to all federal, state and local government web resources and services.